Decoded Metar for EBBE (BEAUVECHAIN in BELGIUM) (IATA:N/A) | Meteo·Mobile Aviation Weather
aviador You're here:

EBBE Decoded Metar

BEAUVECHAIN in BELGIUM
Report Time2019-01-21 14:55:00
UTC Time2019-01-21 15:30:10
Flight Rules vfr VFR
Wind200° at 03 kt
W.Decomp.*RWY 22: 2.8 kt HW 1.1 kt LCW
W.Rank200° ranks 5
Current wind is below 200° avg. (9.5)
Visibility9999 m
Phenomena:N/A
Clouds:Few 220 Hf
Expected CloudBase > 3,200 ft AGL from Temp-Dew spread
CeilingNone
Temp02°C (ISA -12)
Dew Point-6°C (56% RH)
AAT-1.8°C
QNH1021 hPa
Density Alt-1,280 ft
Elevation417 ft
Report Wrong Elevation
Raw Report
EBBE 211455Z 20003KT 9999 FEW220 02/M06 Q1021 BLU BLU=

Extra information for EBBE:More info

Metar Taf Metar & Taf Last 4 Metars F.Rules Stats Wind Profile Meteogram Temp Stats Airport Information Weather charts Add Link Nearby VenuesMetar ALERT Operation Metar Decoded Social comments